createdAt,value
2023-03-16T00:01:19.111Z,99.90
2023-03-16T00:08:49.994Z,99.90
2023-03-16T00:11:22.646Z,99.90
2023-03-16T00:16:23.127Z,99.90
2023-03-16T00:18:53.184Z,99.90
2023-03-16T00:23:53.548Z,99.90
2023-03-16T00:26:26.326Z,99.90
2023-03-16T00:28:56.342Z,99.90
2023-03-16T00:31:27.726Z,99.90
2023-03-16T00:33:57.741Z,99.90
2023-03-16T00:36:27.798Z,99.90
2023-03-16T00:41:30.719Z,99.90
2023-03-16T00:49:02.866Z,99.90
2023-03-16T00:51:34.075Z,99.90
2023-03-16T00:54:05.181Z,99.90
2023-03-16T00:56:38.116Z,99.90
2023-03-16T00:59:09.039Z,99.90
2023-03-16T01:01:39.338Z,99.90
2023-03-16T01:04:09.683Z,99.90
2023-03-16T01:11:43.437Z,99.90
2023-03-16T01:14:13.985Z,99.90
2023-03-16T01:16:46.223Z,99.90
2023-03-16T01:19:17.059Z,99.90
2023-03-16T01:24:17.352Z,99.90
2023-03-16T01:26:50.393Z,99.90
2023-03-16T01:29:20.457Z,99.90
2023-03-16T01:34:21.821Z,99.90
2023-03-16T01:36:53.140Z,99.90
2023-03-16T01:39:23.376Z,99.90
2023-03-16T01:41:56.391Z,99.90
2023-03-16T01:44:32.838Z,99.90
2023-03-16T01:49:36.037Z,99.90
2023-03-16T01:52:09.805Z,99.90
2023-03-16T01:54:43.956Z,99.90
2023-03-16T01:57:21.124Z,99.90
2023-03-16T01:59:55.299Z,99.90
2023-03-16T02:02:28.869Z,99.90
2023-03-16T02:05:04.628Z,99.90
2023-03-16T02:07:37.759Z,99.90
2023-03-16T02:10:10.386Z,99.90
2023-03-16T02:12:43.125Z,99.90
2023-03-16T02:15:14.370Z,99.90
2023-03-16T02:17:47.274Z,99.90
2023-03-16T02:20:29.608Z,99.90
2023-03-16T02:25:38.725Z,99.90
2023-03-16T02:28:18.307Z,99.90
2023-03-16T02:30:51.465Z,99.90
2023-03-16T02:33:22.792Z,99.90
2023-03-16T02:35:52.761Z,99.90
2023-03-16T02:41:01.082Z,99.90
2023-03-16T02:43:36.210Z,99.90
2023-03-16T02:46:09.643Z,99.90
2023-03-16T02:48:44.638Z,99.90
2023-03-16T02:51:15.022Z,99.90
2023-03-16T02:53:45.245Z,99.90
2023-03-16T02:56:15.278Z,99.90
2023-03-16T02:58:45.350Z,99.90
2023-03-16T03:01:18.003Z,99.90
2023-03-16T03:03:48.055Z,99.90
2023-03-16T03:08:48.447Z,99.90
2023-03-16T03:11:19.738Z,99.90
2023-03-16T03:13:49.902Z,99.90
2023-03-16T03:16:22.649Z,99.90
2023-03-16T03:18:53.757Z,99.90
2023-03-16T03:23:54.705Z,99.90
2023-03-16T03:26:25.120Z,99.90
2023-03-16T03:31:28.161Z,99.90
2023-03-16T03:36:28.460Z,99.90
2023-03-16T03:38:58.634Z,99.90
2023-03-16T03:41:28.716Z,99.90
2023-03-16T03:46:32.322Z,99.90
2023-03-16T03:49:05.312Z,99.90
2023-03-16T03:51:35.834Z,99.90
2023-03-16T03:54:06.134Z,99.90
2023-03-16T03:59:06.711Z,99.90
2023-03-16T04:01:39.466Z,99.90
2023-03-16T04:04:09.672Z,99.90
2023-03-16T04:06:39.727Z,99.90
2023-03-16T04:11:40.398Z,99.90
2023-03-16T04:16:44.430Z,99.90
2023-03-16T04:21:44.777Z,99.90
2023-03-16T04:29:18.366Z,99.90
2023-03-16T04:31:51.146Z,99.90
2023-03-16T04:34:24.962Z,99.90
2023-03-16T04:36:55.031Z,99.90
2023-03-16T04:39:25.235Z,99.90
2023-03-16T04:41:55.590Z,99.90
2023-03-16T04:46:59.256Z,99.90
2023-03-16T04:49:29.566Z,99.90
2023-03-16T04:51:59.572Z,99.90
2023-03-16T04:54:29.680Z,99.90
2023-03-16T04:57:00.424Z,99.90
2023-03-16T05:02:04.188Z,99.90
2023-03-16T05:04:34.664Z,99.90
2023-03-16T05:09:35.165Z,99.90
2023-03-16T05:14:36.218Z,99.90
2023-03-16T05:17:09.221Z,99.90
2023-03-16T05:19:39.330Z,99.90
2023-03-16T05:22:10.180Z,99.90
2023-03-16T05:24:41.103Z,99.90
2023-03-16T05:27:11.481Z,99.90
2023-03-16T05:29:46.142Z,99.90
2023-03-16T05:32:19.544Z,99.90
2023-03-16T05:34:49.598Z,99.90
2023-03-16T05:37:19.638Z,99.90
2023-03-16T05:39:49.691Z,99.90
2023-03-16T05:42:20.013Z,99.90
2023-03-16T05:44:50.488Z,99.90
2023-03-16T05:47:23.222Z,99.90
2023-03-16T05:59:56.801Z,99.90
2023-03-16T06:02:29.475Z,99.90
2023-03-16T06:04:59.660Z,99.90
2023-03-16T06:17:33.767Z,99.90
2023-03-16T06:20:05.573Z,99.90
2023-03-16T06:22:35.576Z,99.90
2023-03-16T06:32:42.044Z,99.90
2023-03-16T06:37:43.555Z,99.90
2023-03-16T06:40:15.193Z,99.90
2023-03-16T06:42:47.058Z,99.90
2023-03-16T06:45:18.352Z,99.90
2023-03-16T06:50:22.102Z,99.90
2023-03-16T06:52:52.106Z,99.90
2023-03-16T06:55:22.397Z,99.90
2023-03-16T07:00:23.535Z,99.90
2023-03-16T07:02:56.173Z,99.90
2023-03-16T07:05:26.252Z,99.90
2023-03-16T07:07:56.300Z,99.90
2023-03-16T07:12:57.549Z,99.90
2023-03-16T07:15:27.850Z,99.90
2023-03-16T07:18:01.197Z,99.90
2023-03-16T07:20:33.238Z,99.90
2023-03-16T07:23:04.804Z,99.90
2023-03-16T07:25:34.972Z,99.90
2023-03-16T07:33:08.432Z,99.90
2023-03-16T07:35:38.609Z,99.90
2023-03-16T07:38:11.186Z,99.90
2023-03-16T07:40:42.872Z,99.90
2023-03-16T07:48:17.172Z,99.90
2023-03-16T07:50:47.848Z,99.90
2023-03-16T07:53:18.378Z,99.90
2023-03-16T07:58:18.816Z,99.90
2023-03-16T08:00:48.962Z,99.90
2023-03-16T08:03:21.623Z,99.90
2023-03-16T08:05:51.825Z,99.90
2023-03-16T08:10:56.546Z,99.90
2023-03-16T08:13:27.344Z,99.90
2023-03-16T08:18:32.751Z,99.90
2023-03-16T08:23:33.812Z,99.90
2023-03-16T08:26:09.064Z,99.90
2023-03-16T08:31:11.050Z,99.90
2023-03-16T08:33:44.023Z,99.90
2023-03-16T08:36:17.045Z,99.90
2023-03-16T08:39:03.734Z,99.90
2023-03-16T08:41:38.005Z,99.90
2023-03-16T08:49:16.087Z,91.50
2023-03-16T08:51:46.815Z,92.20
2023-03-16T08:54:17.223Z,84.30
2023-03-16T08:56:47.365Z,84.30
2023-03-16T09:02:00.692Z,73.20
2023-03-16T09:04:33.662Z,72.30
2023-03-16T09:07:08.932Z,70.40
2023-03-16T09:09:40.359Z,74.70
2023-03-16T09:12:10.880Z,78.20
2023-03-16T09:14:40.926Z,82.70
2023-03-16T09:17:11.937Z,81.60
2023-03-16T09:19:53.950Z,79.40
2023-03-16T09:22:25.567Z,82.50
2023-03-16T09:24:55.786Z,84.30
2023-03-16T09:27:26.217Z,84.40
2023-03-16T09:29:56.646Z,85.80
2023-03-16T09:35:00.723Z,88.60
2023-03-16T09:37:44.480Z,87.20
2023-03-16T09:40:25.813Z,90.00
2023-03-16T09:43:10.960Z,90.00
2023-03-16T09:45:47.958Z,90.30
2023-03-16T09:48:21.072Z,90.60
2023-03-16T09:50:56.570Z,88.60
2023-03-16T09:53:30.387Z,86.80
2023-03-16T09:56:04.836Z,75.80
2023-03-16T09:58:36.692Z,79.50
2023-03-16T10:01:16.043Z,70.50
2023-03-16T10:04:04.863Z,66.00
2023-03-16T10:06:42.981Z,63.80
2023-03-16T10:09:24.081Z,59.50
2023-03-16T10:11:58.018Z,57.40
2023-03-16T10:14:33.392Z,51.60
2023-03-16T10:17:08.488Z,52.20
2023-03-16T10:19:46.166Z,50.60
2023-03-16T10:22:26.710Z,48.20
2023-03-16T10:25:07.200Z,51.00
2023-03-16T10:27:43.608Z,49.40
2023-03-16T10:30:30.348Z,44.40
2023-03-16T10:33:05.598Z,44.10
2023-03-16T10:38:38.829Z,47.10
2023-03-16T10:41:21.576Z,47.80
2023-03-16T10:43:54.777Z,46.80
2023-03-16T10:46:28.779Z,47.10
2023-03-16T10:49:00.560Z,48.60
2023-03-16T10:51:41.178Z,49.30
2023-03-16T10:54:19.913Z,49.10
2023-03-16T10:56:50.852Z,54.20
2023-03-16T10:59:33.405Z,50.90
2023-03-16T11:02:06.727Z,52.30
2023-03-16T11:04:38.189Z,52.00
2023-03-16T11:09:45.109Z,52.70
2023-03-16T11:12:24.268Z,53.00
2023-03-16T11:14:56.197Z,53.10
2023-03-16T11:17:34.146Z,53.90
2023-03-16T11:20:14.884Z,50.80
2023-03-16T11:25:28.849Z,54.00
2023-03-16T11:28:08.622Z,49.80
2023-03-16T11:30:43.921Z,52.10
2023-03-16T11:33:16.954Z,48.40
2023-03-16T11:35:59.327Z,50.70
2023-03-16T11:38:36.331Z,49.60
2023-03-16T11:41:14.553Z,50.50
2023-03-16T11:43:53.259Z,50.50
2023-03-16T11:46:27.468Z,48.70
2023-03-16T11:49:17.781Z,48.50
2023-03-16T11:51:58.056Z,48.50
2023-03-16T11:54:48.990Z,52.90
2023-03-16T11:57:33.714Z,49.20
2023-03-16T12:00:25.817Z,54.30
2023-03-16T12:03:14.956Z,54.00
2023-03-16T12:05:54.592Z,53.50
2023-03-16T12:08:47.866Z,53.10
2023-03-16T12:11:23.545Z,51.90
2023-03-16T12:14:17.541Z,51.80
2023-03-16T12:16:54.757Z,51.20
2023-03-16T12:19:25.737Z,48.90
2023-03-16T12:22:05.387Z,51.00
2023-03-16T12:24:42.631Z,51.00
2023-03-16T12:27:16.085Z,48.30
2023-03-16T12:30:03.911Z,50.80
2023-03-16T12:32:45.343Z,52.30
2023-03-16T12:35:34.125Z,48.60
2023-03-16T12:38:28.733Z,48.90
2023-03-16T12:41:11.109Z,49.10
2023-03-16T12:43:49.829Z,51.80
2023-03-16T12:46:31.352Z,49.00
2023-03-16T12:49:04.946Z,52.40
2023-03-16T12:51:38.805Z,52.40
2023-03-16T12:54:09.762Z,49.00
2023-03-16T12:56:47.919Z,48.70
2023-03-16T12:59:21.206Z,52.90
2023-03-16T13:01:56.182Z,54.20
2023-03-16T13:04:34.501Z,53.20
2023-03-16T13:07:08.263Z,49.50
2023-03-16T13:12:10.652Z,53.80
2023-03-16T13:14:47.623Z,49.70
2023-03-16T13:17:32.291Z,51.10
2023-03-16T13:20:30.292Z,53.70
2023-03-16T13:25:45.848Z,50.90
2023-03-16T13:28:17.755Z,52.60
2023-03-16T13:30:50.299Z,54.40
2023-03-16T13:33:26.476Z,49.20
2023-03-16T13:35:59.415Z,54.10
2023-03-16T13:38:30.855Z,52.40
2023-03-16T13:41:06.216Z,52.80
2023-03-16T13:43:37.364Z,49.70
2023-03-16T13:46:17.928Z,54.90
2023-03-16T13:48:51.370Z,55.60
2023-03-16T13:51:25.699Z,51.30
2023-03-16T13:56:28.983Z,50.30
2023-03-16T13:59:02.115Z,50.70
2023-03-16T14:04:20.269Z,50.60
2023-03-16T14:09:34.970Z,50.80
2023-03-16T14:14:44.098Z,53.60
2023-03-16T14:17:22.746Z,50.80
2023-03-16T14:20:02.365Z,55.80
2023-03-16T14:25:05.937Z,53.80
2023-03-16T14:27:47.698Z,53.80
2023-03-16T14:30:28.095Z,50.10
2023-03-16T14:33:05.458Z,54.80
2023-03-16T14:35:43.989Z,50.40
2023-03-16T14:38:24.552Z,52.60
2023-03-16T14:40:57.634Z,54.00
2023-03-16T14:43:32.982Z,49.20
2023-03-16T14:48:35.496Z,52.50
2023-03-16T14:51:08.628Z,54.10
2023-03-16T14:56:14.970Z,52.80
2023-03-16T14:58:45.484Z,54.20
2023-03-16T15:01:20.518Z,54.40
2023-03-16T15:06:24.290Z,49.60
2023-03-16T15:08:54.816Z,52.30
2023-03-16T15:11:26.288Z,53.70
2023-03-16T15:16:45.190Z,49.00
2023-03-16T15:19:15.472Z,52.30
2023-03-16T15:21:48.154Z,52.50
2023-03-16T15:24:18.281Z,53.00
2023-03-16T15:26:48.388Z,51.80
2023-03-16T15:29:19.914Z,52.10
2023-03-16T15:36:58.355Z,49.50
2023-03-16T15:39:28.801Z,54.60
2023-03-16T15:41:58.887Z,55.20
2023-03-16T15:44:29.323Z,54.10
2023-03-16T15:49:37.807Z,53.80
2023-03-16T15:52:27.552Z,52.20
2023-03-16T16:00:01.740Z,52.70
2023-03-16T16:02:33.912Z,52.10
2023-03-16T16:05:04.844Z,54.20
2023-03-16T16:07:37.540Z,49.70
2023-03-16T16:10:09.145Z,53.60
2023-03-16T16:12:39.193Z,52.50
2023-03-16T16:15:23.250Z,52.90
2023-03-16T16:20:43.539Z,48.30
2023-03-16T16:23:16.208Z,51.00
2023-03-16T16:25:47.049Z,52.70
2023-03-16T16:28:17.669Z,48.70
2023-03-16T16:30:48.309Z,54.80
2023-03-16T16:33:26.228Z,55.10
2023-03-16T16:35:57.306Z,55.20
2023-03-16T16:38:30.313Z,51.30
2023-03-16T16:41:03.439Z,55.70
2023-03-16T16:43:36.728Z,52.00
2023-03-16T16:46:10.418Z,54.70
2023-03-16T16:48:42.230Z,55.50
2023-03-16T16:51:20.297Z,51.70
2023-03-16T16:53:53.786Z,55.00
2023-03-16T16:56:29.535Z,55.30
2023-03-16T16:59:00.954Z,52.30
2023-03-16T17:01:33.212Z,56.00
2023-03-16T17:06:34.506Z,55.90
2023-03-16T17:09:08.958Z,52.50
2023-03-16T17:11:40.728Z,52.60
2023-03-16T17:14:11.227Z,57.70
2023-03-16T17:16:41.784Z,58.50
2023-03-16T17:21:50.084Z,57.40
2023-03-16T17:24:22.847Z,54.20
2023-03-16T17:26:58.938Z,57.80
2023-03-16T17:29:31.747Z,59.60
2023-03-16T17:32:02.643Z,55.10
2023-03-16T17:34:35.539Z,59.70
2023-03-16T17:37:05.703Z,58.70
2023-03-16T17:39:39.714Z,61.40
2023-03-16T17:44:46.668Z,57.60
2023-03-16T17:47:18.590Z,57.90
2023-03-16T17:49:49.130Z,62.30
2023-03-16T17:52:21.156Z,64.50
2023-03-16T17:54:56.057Z,58.60
2023-03-16T17:57:30.805Z,62.60
2023-03-16T18:00:02.379Z,62.00
2023-03-16T18:02:46.627Z,65.80
2023-03-16T18:05:22.279Z,64.50
2023-03-16T18:07:52.885Z,67.00
2023-03-16T18:10:30.220Z,61.30
2023-03-16T18:13:02.552Z,61.10
2023-03-16T18:15:36.786Z,66.90
2023-03-16T18:18:08.957Z,61.70
2023-03-16T18:23:19.515Z,69.20
2023-03-16T18:25:54.162Z,67.10
2023-03-16T18:28:25.102Z,62.30
2023-03-16T18:30:55.364Z,63.10
2023-03-16T18:33:30.192Z,66.60
2023-03-16T18:36:02.410Z,62.30
2023-03-16T18:38:34.761Z,69.10
2023-03-16T18:41:18.626Z,69.30
2023-03-16T18:43:49.417Z,62.90
2023-03-16T18:46:26.465Z,70.20
2023-03-16T18:48:58.278Z,69.20
2023-03-16T18:51:29.358Z,63.00
2023-03-16T18:56:32.960Z,70.10
2023-03-16T18:59:03.428Z,68.50
2023-03-16T19:01:35.414Z,68.60
2023-03-16T19:04:05.868Z,65.70
2023-03-16T19:06:40.485Z,70.40
2023-03-16T19:09:21.420Z,65.10
2023-03-16T19:11:54.506Z,65.60
2023-03-16T19:14:27.514Z,66.60
2023-03-16T19:16:58.271Z,73.30
2023-03-16T19:19:28.854Z,74.00
2023-03-16T19:22:04.624Z,74.60
2023-03-16T19:24:38.950Z,68.90
2023-03-16T19:27:20.052Z,74.60
2023-03-16T19:29:52.242Z,76.10
2023-03-16T19:32:23.806Z,70.30
2023-03-16T19:37:26.870Z,75.30
2023-03-16T19:39:57.150Z,78.10
2023-03-16T19:42:34.678Z,77.20
2023-03-16T19:45:05.205Z,77.40
2023-03-16T19:47:37.588Z,72.60
2023-03-16T19:50:16.749Z,73.00
2023-03-16T19:52:47.296Z,80.20
2023-03-16T19:55:19.491Z,78.50
2023-03-16T19:57:59.278Z,79.10
2023-03-16T20:00:31.190Z,80.10
2023-03-16T20:05:33.958Z,82.20
2023-03-16T20:08:05.167Z,79.30
2023-03-16T20:13:08.661Z,76.60
2023-03-16T20:15:39.633Z,83.60
2023-03-16T20:20:46.286Z,78.30
2023-03-16T20:23:25.809Z,78.80
2023-03-16T20:26:01.396Z,79.30
2023-03-16T20:28:38.812Z,85.10
2023-03-16T20:31:12.388Z,87.40
2023-03-16T20:36:14.949Z,87.30
2023-03-16T20:38:46.380Z,88.20
2023-03-16T20:41:27.868Z,81.60
2023-03-16T20:44:03.300Z,84.10
2023-03-16T20:46:35.893Z,82.40
2023-03-16T20:49:08.900Z,90.30
2023-03-16T20:51:39.195Z,87.60
2023-03-16T20:54:09.683Z,87.70
2023-03-16T20:56:39.963Z,88.40
2023-03-16T20:59:20.586Z,89.10
2023-03-16T21:01:52.137Z,84.90
2023-03-16T21:04:25.903Z,86.70
2023-03-16T21:06:57.017Z,90.90
2023-03-16T21:09:27.957Z,86.80
2023-03-16T21:14:31.632Z,91.40
2023-03-16T21:17:02.957Z,87.80
2023-03-16T21:19:33.130Z,91.10
2023-03-16T21:22:03.374Z,92.40
2023-03-16T21:24:33.511Z,93.10
2023-03-16T21:29:37.467Z,93.30
2023-03-16T21:32:17.269Z,92.30
2023-03-16T21:34:47.500Z,93.10
2023-03-16T21:37:18.596Z,92.90
2023-03-16T21:39:48.451Z,89.40
2023-03-16T21:42:19.692Z,92.90
2023-03-16T21:44:52.509Z,92.70
2023-03-16T21:47:27.798Z,91.60
2023-03-16T21:49:59.345Z,91.90
2023-03-16T21:52:32.049Z,92.30
2023-03-16T22:00:06.419Z,93.40
2023-03-16T22:02:37.921Z,93.20
2023-03-16T22:05:25.737Z,91.00
2023-03-16T22:10:27.791Z,90.80
2023-03-16T22:15:31.670Z,92.10
2023-03-16T22:18:07.965Z,90.20
2023-03-16T22:23:09.235Z,89.80
2023-03-16T22:25:39.462Z,93.00
2023-03-16T22:28:14.632Z,93.30
2023-03-16T22:30:48.016Z,90.40
2023-03-16T22:33:23.791Z,93.70
2023-03-16T22:35:55.314Z,93.90
2023-03-16T22:38:25.740Z,93.40
2023-03-16T22:40:55.822Z,93.00
2023-03-16T22:43:32.615Z,91.20
2023-03-16T22:46:05.595Z,94.70
2023-03-16T22:51:07.447Z,94.80
2023-03-16T22:53:40.825Z,92.00
2023-03-16T22:56:13.019Z,91.90
2023-03-16T22:58:46.436Z,92.00
2023-03-16T23:01:21.695Z,93.40
2023-03-16T23:03:53.814Z,94.80
2023-03-16T23:06:26.630Z,93.70
2023-03-16T23:08:57.594Z,94.80
2023-03-16T23:11:29.746Z,93.90
2023-03-16T23:14:00.679Z,93.10
2023-03-16T23:16:37.300Z,95.40
2023-03-16T23:19:22.219Z,94.80
2023-03-16T23:21:54.910Z,95.80
2023-03-16T23:24:25.320Z,95.10
2023-03-16T23:26:56.261Z,96.20
2023-03-16T23:29:27.126Z,92.90
2023-03-16T23:32:00.044Z,96.00
2023-03-16T23:34:30.092Z,95.40
2023-03-16T23:37:00.170Z,93.40
2023-03-16T23:39:30.250Z,96.50
2023-03-16T23:42:00.335Z,96.20
2023-03-16T23:44:32.235Z,96.90
2023-03-16T23:47:05.002Z,97.30
2023-03-16T23:49:37.565Z,97.60
2023-03-16T23:52:08.392Z,97.60
2023-03-16T23:57:09.015Z,97.10
